Time;durP1;ratioP1;P1;durP2;ratioP2;P2;SDS_P1;SDS_P2;PMS_P1;PMS_P2;Temp;Humidity;BMP_temperature;BMP_pressure;BME280_temperature;BME280_humidity;BME280_pressure;Samples;Min_cycle;Max_cycle;Signal;HPM_P1;HPM_P2
2022/08/10 00:03:59;;;;;;;3.38;3.08;;;;;;;;;;10145013;28;20046;-56
2022/08/10 00:08:58;;;;;;;7.68;2.70;;;;;;;;;;10129377;28;20069;-56
2022/08/10 00:13:56;;;;;;;7.15;2.80;;;;;;;;;;10130458;28;20073;-54
2022/08/10 00:18:57;;;;;;;2.75;2.50;;;;;;;;;;10140335;28;20066;-57
2022/08/10 00:23:58;;;;;;;2.45;2.25;;;;;;;;;;10157038;28;20070;-56
2022/08/10 00:28:56;;;;;;;5.20;2.75;;;;;;;;;;10139787;28;20077;-57
2022/08/10 00:33:54;;;;;;;5.25;2.90;;;;;;;;;;10140408;28;20077;-56
2022/08/10 00:38:52;;;;;;;7.80;2.50;;;;;;;;;;10139518;28;20073;-53
2022/08/10 00:43:52;;;;;;;5.60;2.30;;;;;;;;;;10139550;28;20070;-57
2022/08/10 00:48:50;;;;;;;7.72;2.75;;;;;;;;;;10137975;28;20077;-56
2022/08/10 00:53:57;;;;;;;6.63;2.92;;;;;;;;;;10133570;28;20066;-54
2022/08/10 00:58:57;;;;;;;4.78;2.58;;;;;;;;;;10121000;28;20077;-53
2022/08/10 01:03:55;;;;;;;5.47;2.67;;;;;;;;;;10142120;28;20066;-56
2022/08/10 01:09:16;;;;;;;7.43;2.85;;;;;;;;;;10141382;28;20073;-55
2022/08/10 01:14:20;;;;;;;7.82;2.30;;;;;;;;;;10139768;28;20488;-56
2022/08/10 01:19:18;;;;;;;;;;;;;;;;;;10138926;28;20457;-55
2022/08/10 01:24:23;;;;;;;4.28;2.63;;;;;;;;;;10135824;28;19965;-56
2022/08/10 01:29:52;;;;;;;4.07;2.92;;;;;;;;;;10132451;28;20097;-54
2022/08/10 01:34:55;;;;;;;5.30;2.55;;;;;;;;;;10095430;28;20113;-55
2022/08/10 01:39:56;;;;;;;4.50;2.50;;;;;;;;;;10141347;28;20038;-55
2022/08/10 01:44:56;;;;;;;8.43;6.07;;;;;;;;;;10143227;28;20096;-55
2022/08/10 01:49:59;;;;;;;6.15;3.10;;;;;;;;;;10136604;28;20534;-56
2022/08/10 01:54:58;;;;;;;5.53;3.20;;;;;;;;;;10140386;28;20077;-57
2022/08/10 01:59:57;;;;;;;5.35;3.17;;;;;;;;;;10132943;28;20539;-56
2022/08/10 02:05:04;;;;;;;4.25;3.10;;;;;;;;;;10142849;28;20082;-60
2022/08/10 02:10:04;;;;;;;10.40;3.28;;;;;;;;;;10145440;28;20069;-61
2022/08/10 02:15:05;;;;;;;11.43;3.08;;;;;;;;;;10136664;28;20066;-61
2022/08/10 02:20:07;;;;;;;5.03;2.88;;;;;;;;;;10135767;28;20077;-61
2022/08/10 02:25:06;;;;;;;5.80;3.00;;;;;;;;;;10135633;28;20073;-61
2022/08/10 02:30:06;;;;;;;4.20;2.70;;;;;;;;;;10136347;28;20082;-61
2022/08/10 02:35:07;;;;;;;3.92;3.08;;;;;;;;;;10135933;28;20077;-61
2022/08/10 02:40:18;;;;;;;7.27;3.07;;;;;;;;;;10135969;28;20352;-61
2022/08/10 02:45:38;;;;;;;5.15;3.83;;;;;;;;;;10136501;28;20059;-61
2022/08/10 02:50:40;;;;;;;7.15;3.35;;;;;;;;;;10135366;28;20082;-61
2022/08/10 02:55:41;;;;;;;3.83;2.78;;;;;;;;;;10135086;28;20560;-61
2022/08/10 03:00:42;;;;;;;4.43;3.10;;;;;;;;;;10136018;28;20218;-61
2022/08/10 03:05:42;;;;;;;5.35;2.35;;;;;;;;;;10134933;28;20104;-61
2022/08/10 03:10:41;;;;;;;6.00;2.75;;;;;;;;;;10134990;28;20082;-61
2022/08/10 03:15:40;;;;;;;4.20;3.60;;;;;;;;;;10134942;28;20074;-60
2022/08/10 03:20:39;;;;;;;7.75;3.30;;;;;;;;;;10133199;28;20464;-61
2022/08/10 03:25:39;;;;;;;4.50;2.65;;;;;;;;;;10155099;28;20077;-61
2022/08/10 03:30:50;;;;;;;3.67;2.33;;;;;;;;;;10145863;28;20088;-61
2022/08/10 03:35:48;;;;;;;3.10;2.15;;;;;;;;;;10133643;28;20062;-61
2022/08/10 03:41:09;;;;;;;6.43;2.65;;;;;;;;;;10117631;28;20507;-61
2022/08/10 03:46:13;;;;;;;4.28;2.58;;;;;;;;;;10145704;28;20077;-60
2022/08/10 03:51:12;;;;;;;3.67;2.60;;;;;;;;;;10142128;28;20078;-60
2022/08/10 03:56:12;;;;;;;3.35;2.88;;;;;;;;;;10152478;28;20486;-61
2022/08/10 04:01:28;;;;;;;4.80;2.40;;;;;;;;;;10148016;28;20070;-60
2022/08/10 04:06:47;;;;;;;2.92;2.60;;;;;;;;;;10142496;28;20086;-61
2022/08/10 04:11:53;;;;;;;7.03;2.97;;;;;;;;;;10152748;28;20041;-60
2022/08/10 04:16:52;;;;;;;4.72;2.67;;;;;;;;;;10146668;28;20070;-60
2022/08/10 04:21:54;;;;;;;4.32;2.40;;;;;;;;;;10153786;28;20136;-61
2022/08/10 04:26:53;;;;;;;6.55;3.47;;;;;;;;;;10146355;28;20073;-61
2022/08/10 04:31:53;;;;;;;5.70;3.78;;;;;;;;;;10151871;28;20459;-61
2022/08/10 04:36:53;;;;;;;7.53;5.22;;;;;;;;;;10146865;28;20138;-61
2022/08/10 04:41:51;;;;;;;5.47;2.85;;;;;;;;;;10154103;28;20070;-61
2022/08/10 04:46:51;;;;;;;3.33;2.78;;;;;;;;;;10162869;28;20093;-61
2022/08/10 04:51:56;;;;;;;4.70;2.67;;;;;;;;;;10143661;28;20074;-61
2022/08/10 04:56:54;;;;;;;5.47;2.63;;;;;;;;;;10148329;28;20062;-59
2022/08/10 05:01:54;;;;;;;11.02;2.95;;;;;;;;;;10154440;28;20077;-60
2022/08/10 05:07:13;;;;;;;3.90;2.47;;;;;;;;;;10137090;28;20090;-61
2022/08/10 05:12:14;;;;;;;4.22;3.75;;;;;;;;;;10141186;28;20077;-61
2022/08/10 05:17:14;;;;;;;4.28;2.88;;;;;;;;;;10151345;28;20070;-61
2022/08/10 05:22:12;;;;;;;4.88;3.70;;;;;;;;;;10149218;28;20443;-61
2022/08/10 05:27:10;;;;;;;6.28;3.70;;;;;;;;;;10149404;28;20071;-60
2022/08/10 05:32:09;;;;;;;5.93;3.30;;;;;;;;;;10150536;28;20074;-61
2022/08/10 05:37:09;;;;;;;6.72;4.30;;;;;;;;;;10153398;28;20066;-59
2022/08/10 05:42:28;;;;;;;4.75;3.25;;;;;;;;;;10148913;28;20066;-61
2022/08/10 05:47:26;;;;;;;7.13;3.08;;;;;;;;;;10155028;28;20513;-60
2022/08/10 05:52:46;;;;;;;4.35;3.55;;;;;;;;;;10151203;28;20078;-60
2022/08/10 05:57:45;;;;;;;5.63;3.40;;;;;;;;;;10150021;28;20089;-60
2022/08/10 06:02:44;;;;;;;4.45;3.95;;;;;;;;;;10151765;28;20078;-60
2022/08/10 06:07:46;;;;;;;5.95;3.67;;;;;;;;;;10153057;28;20092;-60
2022/08/10 06:12:47;;;;;;;5.07;3.05;;;;;;;;;;10154209;28;20086;-59
2022/08/10 06:17:53;;;;;;;6.90;3.35;;;;;;;;;;10152622;28;20074;-59
2022/08/10 06:23:01;;;;;;;3.55;3.25;;;;;;;;;;10151090;28;20078;-59
2022/08/10 06:28:00;;;;;;;4.28;3.65;;;;;;;;;;10151774;28;20173;-59
2022/08/10 06:32:59;;;;;;;6.63;3.10;;;;;;;;;;10152364;28;20073;-60
2022/08/10 06:37:59;;;;;;;3.78;3.47;;;;;;;;;;10150660;28;20080;-60
2022/08/10 06:43:00;;;;;;;4.50;4.10;;;;;;;;;;10148156;28;20077;-61
2022/08/10 06:48:00;;;;;;;7.32;6.40;;;;;;;;;;10141641;28;20145;-61
2022/08/10 06:52:59;;;;;;;4.10;3.72;;;;;;;;;;10135786;28;20065;-59
2022/08/10 06:58:00;;;;;;;4.45;3.58;;;;;;;;;;10129920;28;20076;-60
2022/08/10 07:03:04;;;;;;;6.63;3.55;;;;;;;;;;10130264;28;20456;-59
2022/08/10 07:08:05;;;;;;;4.20;3.70;;;;;;;;;;10132172;28;20073;-61
2022/08/10 07:13:05;;;;;;;5.57;3.67;;;;;;;;;;10130056;28;20061;-61
2022/08/10 07:18:04;;;;;;;6.45;3.03;;;;;;;;;;10130768;28;20162;-61
2022/08/10 07:23:03;;;;;;;4.70;2.95;;;;;;;;;;10130362;28;20066;-61
2022/08/10 07:28:23;;;;;;;4.70;3.80;;;;;;;;;;10134227;28;20105;-60
2022/08/10 07:33:22;;;;;;;7.50;4.00;;;;;;;;;;10133132;28;20126;-60
2022/08/10 07:38:22;;;;;;;5.20;3.20;;;;;;;;;;10134814;28;20065;-61
2022/08/10 07:43:21;;;;;;;4.68;4.13;;;;;;;;;;10134557;28;20110;-60
2022/08/10 07:48:24;;;;;;;5.90;3.72;;;;;;;;;;10135713;28;20448;-60
2022/08/10 07:53:24;;;;;;;3.83;3.40;;;;;;;;;;10134013;28;20085;-61
2022/08/10 07:58:25;;;;;;;9.27;4.65;;;;;;;;;;10134256;28;20448;-59
2022/08/10 08:03:27;;;;;;;3.60;3.05;;;;;;;;;;10135863;28;20074;-60
2022/08/10 08:08:26;;;;;;;4.07;3.08;;;;;;;;;;10134615;28;20077;-59
2022/08/10 08:13:26;;;;;;;5.55;2.78;;;;;;;;;;10137225;28;20073;-60
2022/08/10 08:18:27;;;;;;;8.32;3.13;;;;;;;;;;10134232;28;20065;-60
2022/08/10 08:23:25;;;;;;;4.65;2.67;;;;;;;;;;10132844;28;20077;-60
2022/08/10 08:28:47;;;;;;;5.88;3.08;;;;;;;;;;10129863;28;20074;-61
2022/08/10 08:33:47;;;;;;;6.07;3.03;;;;;;;;;;10141082;28;20063;-60
2022/08/10 08:38:46;;;;;;;26.92;4.65;;;;;;;;;;10140088;28;20072;-60
2022/08/10 08:43:48;;;;;;;6.68;3.05;;;;;;;;;;10139397;28;20253;-60
2022/08/10 08:49:00;;;;;;;5.50;2.73;;;;;;;;;;10139773;28;20085;-60
2022/08/10 08:54:04;;;;;;;4.70;3.80;;;;;;;;;;10137485;28;20070;-61
2022/08/10 08:59:08;;;;;;;5.47;2.30;;;;;;;;;;10140300;28;20092;-61
2022/08/10 09:04:19;;;;;;;12.48;8.60;;;;;;;;;;10139629;28;20074;-60
2022/08/10 09:09:24;;;;;;;6.30;3.60;;;;;;;;;;10140923;28;20085;-60
2022/08/10 09:14:25;;;;;;;5.13;2.42;;;;;;;;;;10139584;28;20078;-60
2022/08/10 09:19:30;;;;;;;3.65;2.30;;;;;;;;;;10139877;28;20073;-60
2022/08/10 09:24:37;;;;;;;7.05;2.70;;;;;;;;;;10136130;28;20081;-60
2022/08/10 09:29:41;;;;;;;3.20;2.28;;;;;;;;;;10136477;28;20472;-59
2022/08/10 09:34:50;;;;;;;5.10;2.65;;;;;;;;;;10137521;28;20078;-61
2022/08/10 09:40:13;;;;;;;6.57;2.40;;;;;;;;;;10142925;28;20084;-61
2022/08/10 09:45:33;;;;;;;4.35;2.50;;;;;;;;;;10138656;28;20082;-61
2022/08/10 09:50:37;;;;;;;7.07;2.47;;;;;;;;;;10139087;28;20078;-60
2022/08/10 09:55:59;;;;;;;4.28;2.65;;;;;;;;;;10137984;28;20491;-60
2022/08/10 10:01:19;;;;;;;5.25;2.90;;;;;;;;;;10139016;28;20094;-61
2022/08/10 10:06:41;;;;;;;3.72;2.42;;;;;;;;;;10135556;28;20059;-60
2022/08/10 10:11:47;;;;;;;22.63;3.10;;;;;;;;;;10131236;28;20081;-61
2022/08/10 10:16:52;;;;;;;6.00;1.90;;;;;;;;;;10131755;28;20062;-60
2022/08/10 10:21:59;;;;;;;2.80;2.08;;;;;;;;;;10136983;28;20081;-61
2022/08/10 10:26:59;;;;;;;4.18;1.73;;;;;;;;;;10136197;28;20074;-61
2022/08/10 10:32:03;;;;;;;3.78;2.60;;;;;;;;;;10136968;28;20488;-61
2022/08/10 10:37:06;;;;;;;7.75;2.65;;;;;;;;;;10135900;28;20073;-61
2022/08/10 10:42:11;;;;;;;4.97;2.33;;;;;;;;;;10136328;28;20057;-60
2022/08/10 10:47:37;;;;;;;7.05;2.33;;;;;;;;;;10136723;28;20074;-60
2022/08/10 10:52:43;;;;;;;8.82;2.58;;;;;;;;;;10135217;28;20089;-59
2022/08/10 10:57:59;;;;;;;7.10;2.42;;;;;;;;;;10134354;28;20506;-61
2022/08/10 11:03:15;;;;;;;9.05;2.78;;;;;;;;;;10134030;28;20042;-61
2022/08/10 11:08:16;;;;;;;6.50;2.60;;;;;;;;;;10134908;28;20042;-60
2022/08/10 11:13:28;;;;;;;6.90;2.40;;;;;;;;;;10135205;28;20084;-60
2022/08/10 11:18:55;;;;;;;5.55;2.42;;;;;;;;;;10131998;28;20073;-60
2022/08/10 11:24:00;;;;;;;5.30;2.22;;;;;;;;;;10134234;28;20086;-59
2022/08/10 11:29:23;;;;;;;7.13;3.42;;;;;;;;;;10136355;28;20070;-60
2022/08/10 11:34:21;;;;;;;;;;;;;;;;;;10135218;28;20069;-59
2022/08/10 11:39:48;;;;;;;2.60;2.30;;;;;;;;;;10132434;28;20379;-60
2022/08/10 11:44:49;;;;;;;3.25;2.65;;;;;;;;;;10134259;28;20066;-61
2022/08/10 11:49:50;;;;;;;4.80;3.17;;;;;;;;;;10133604;28;20075;-61
2022/08/10 11:54:53;;;;;;;7.82;3.38;;;;;;;;;;10134280;28;20503;-60
2022/08/10 11:59:57;;;;;;;8.57;2.65;;;;;;;;;;10133743;28;20511;-60
2022/08/10 12:04:58;;;;;;;9.57;2.00;;;;;;;;;;10136517;28;20070;-60
2022/08/10 12:09:58;;;;;;;6.30;2.70;;;;;;;;;;10148623;28;20074;-60
2022/08/10 12:15:12;;;;;;;3.97;3.45;;;;;;;;;;10142079;28;20089;-60
2022/08/10 12:20:15;;;;;;;5.75;2.55;;;;;;;;;;10142927;28;20062;-61
2022/08/10 12:25:18;;;;;;;8.25;3.45;;;;;;;;;;10142022;28;20491;-61
2022/08/10 12:30:38;;;;;;;8.57;4.25;;;;;;;;;;10141066;28;20491;-62
2022/08/10 12:35:38;;;;;;;8.75;3.40;;;;;;;;;;10141278;28;20070;-60
2022/08/10 12:40:48;;;;;;;7.50;2.92;;;;;;;;;;10141078;28;20067;-61
2022/08/10 12:45:52;;;;;;;5.80;2.88;;;;;;;;;;10141238;28;20117;-61
2022/08/10 12:50:53;;;;;;;7.53;2.72;;;;;;;;;;10141132;28;20074;-62
2022/08/10 12:55:53;;;;;;;5.53;3.10;;;;;;;;;;10133237;28;20047;-60
2022/08/10 13:00:53;;;;;;;7.43;3.60;;;;;;;;;;10134469;28;20082;-60
2022/08/10 13:06:12;;;;;;;5.90;2.83;;;;;;;;;;10144357;28;20082;-61
2022/08/10 13:11:12;;;;;;;7.90;3.70;;;;;;;;;;10142024;28;20082;-60
2022/08/10 13:16:31;;;;;;;6.03;3.20;;;;;;;;;;10138518;28;20512;-61
2022/08/10 13:21:31;;;;;;;7.45;4.80;;;;;;;;;;10139123;28;20479;-61
2022/08/10 13:26:31;;;;;;;4.35;2.92;;;;;;;;;;10139688;28;20085;-61
2022/08/10 13:31:30;;;;;;;2.47;2.15;;;;;;;;;;10139967;28;20086;-60
2022/08/10 13:36:49;;;;;;;6.20;2.40;;;;;;;;;;10133915;28;20508;-61
2022/08/10 13:41:51;;;;;;;7.95;4.28;;;;;;;;;;10138625;28;20073;-60
2022/08/10 13:46:51;;;;;;;13.13;3.37;;;;;;;;;;10137654;28;20061;-60
2022/08/10 13:51:50;;;;;;;8.60;3.30;;;;;;;;;;10125295;28;20070;-60
2022/08/10 13:56:57;;;;;;;8.40;4.43;;;;;;;;;;10132261;28;20073;-60
2022/08/10 14:01:56;;;;;;;4.15;2.90;;;;;;;;;;10134422;28;20070;-60
2022/08/10 14:06:56;;;;;;;6.10;4.43;;;;;;;;;;10138226;28;20541;-60
2022/08/10 14:11:56;;;;;;;3.50;3.15;;;;;;;;;;10137227;28;20082;-60
2022/08/10 14:16:55;;;;;;;6.63;4.55;;;;;;;;;;10137270;28;20073;-60
2022/08/10 14:21:53;;;;;;;8.73;4.95;;;;;;;;;;10136524;28;20074;-60
2022/08/10 14:26:58;;;;;;;4.85;4.05;;;;;;;;;;10136395;28;20073;-60
2022/08/10 14:31:58;;;;;;;8.85;3.38;;;;;;;;;;10135720;28;20085;-60
2022/08/10 14:37:00;;;;;;;5.78;4.30;;;;;;;;;;10136560;28;20050;-60
2022/08/10 14:42:05;;;;;;;6.30;4.40;;;;;;;;;;10136276;28;20077;-60
2022/08/10 14:47:22;;;;;;;6.72;5.05;;;;;;;;;;10136130;28;20565;-60
2022/08/10 14:52:41;;;;;;;14.68;13.30;;;;;;;;;;10136247;28;20088;-59
2022/08/10 14:57:44;;;;;;;6.32;4.07;;;;;;;;;;10133842;28;20124;-59
2022/08/10 15:03:03;;;;;;;14.77;13.38;;;;;;;;;;10134138;28;20080;-60
2022/08/10 15:08:23;;;;;;;15.35;12.77;;;;;;;;;;10136806;28;20074;-60
2022/08/10 15:13:23;;;;;;;8.15;3.60;;;;;;;;;;10134645;28;20077;-60
2022/08/10 15:18:32;;;;;;;7.85;3.90;;;;;;;;;;10130879;28;20537;-60
2022/08/10 15:23:31;;;;;;;6.90;3.45;;;;;;;;;;10130171;28;20070;-60
2022/08/10 15:28:51;;;;;;;4.25;3.50;;;;;;;;;;10132240;28;20496;-60
2022/08/10 15:39:27;;;;;;;4.10;2.25;;;;;;;;;;10133591;28;20459;-59
2022/08/10 15:44:48;;;;;;;7.18;2.60;;;;;;;;;;10133602;28;20078;-60
2022/08/10 15:49:49;;;;;;;6.32;4.97;;;;;;;;;;10134383;28;20415;-60
2022/08/10 15:54:51;;;;;;;3.47;3.17;;;;;;;;;;10133251;28;20105;-60
2022/08/10 15:59:58;;;;;;;7.75;2.97;;;;;;;;;;10133439;28;20078;-60
2022/08/10 16:04:59;;;;;;;2.03;1.88;;;;;;;;;;10133673;28;20436;-60
2022/08/10 16:09:58;;;;;;;5.90;3.72;;;;;;;;;;10134185;28;20455;-60
2022/08/10 16:15:22;;;;;;;7.65;2.10;;;;;;;;;;10133935;28;20078;-60
2022/08/10 16:20:22;;;;;;;3.90;3.22;;;;;;;;;;10136472;28;20078;-59
2022/08/10 16:25:26;;;;;;;8.03;2.60;;;;;;;;;;10143211;28;20065;-58
2022/08/10 16:30:48;;;;;;;5.57;3.33;;;;;;;;;;10130838;28;20062;-60
2022/08/10 16:35:49;;;;;;;16.10;4.20;;;;;;;;;;10125885;28;20173;-59
2022/08/10 16:40:49;;;;;;;8.73;4.25;;;;;;;;;;10133413;28;20065;-60
2022/08/10 16:45:51;;;;;;;10.57;4.75;;;;;;;;;;10129995;28;20070;-60
2022/08/10 16:50:52;;;;;;;5.70;2.40;;;;;;;;;;10131416;28;20085;-59
2022/08/10 16:55:51;;;;;;;7.60;3.03;;;;;;;;;;10136198;28;20507;-60
2022/08/10 17:00:51;;;;;;;3.75;1.83;;;;;;;;;;10136532;28;20070;-59
2022/08/10 17:05:53;;;;;;;3.70;1.85;;;;;;;;;;10140270;28;20046;-60
2022/08/10 17:11:09;;;;;;;5.18;1.70;;;;;;;;;;10139811;28;20079;-56
2022/08/10 17:16:13;;;;;;;3.92;2.13;;;;;;;;;;10142410;28;20078;-60
2022/08/10 17:21:13;;;;;;;7.55;1.60;;;;;;;;;;10141886;28;20082;-58
2022/08/10 17:26:15;;;;;;;5.72;1.63;;;;;;;;;;10139147;28;20429;-60
2022/08/10 17:31:29;;;;;;;5.88;1.85;;;;;;;;;;10139000;28;20089;-59
2022/08/10 17:36:51;;;;;;;6.93;1.92;;;;;;;;;;10133658;28;20051;-60
2022/08/10 17:41:51;;;;;;;5.00;2.33;;;;;;;;;;10138456;28;20066;-60
2022/08/10 17:46:51;;;;;;;4.03;2.22;;;;;;;;;;10138211;28;20073;-60
2022/08/10 17:51:52;;;;;;;5.60;1.63;;;;;;;;;;10138310;28;20062;-59
2022/08/10 17:56:51;;;;;;;2.53;1.45;;;;;;;;;;10138010;28;20086;-60
2022/08/10 18:01:52;;;;;;;7.30;2.60;;;;;;;;;;10136838;28;20067;-60
2022/08/10 18:07:00;;;;;;;5.05;1.50;;;;;;;;;;10137390;28;20077;-60
2022/08/10 18:12:01;;;;;;;5.25;1.30;;;;;;;;;;10137319;28;20070;-60
2022/08/10 18:17:11;;;;;;;3.55;1.58;;;;;;;;;;10137083;28;20085;-59
2022/08/10 18:22:10;;;;;;;3.03;1.17;;;;;;;;;;10134945;28;20086;-58
2022/08/10 18:27:09;;;;;;;6.63;1.50;;;;;;;;;;10136846;28;20070;-60
2022/08/10 18:32:08;;;;;;;1.65;1.17;;;;;;;;;;10136432;28;20077;-60
2022/08/10 18:37:09;;;;;;;4.22;1.35;;;;;;;;;;10135470;28;20076;-60
2022/08/10 18:42:10;;;;;;;8.45;1.55;;;;;;;;;;10137144;28;20066;-60
2022/08/10 18:47:11;;;;;;;4.45;1.75;;;;;;;;;;10136760;28;20089;-59
2022/08/10 18:52:14;;;;;;;4.43;2.33;;;;;;;;;;10135904;28;20073;-59
2022/08/10 18:57:17;;;;;;;6.57;2.33;;;;;;;;;;10135731;28;20081;-60
2022/08/10 19:02:34;;;;;;;3.30;1.30;;;;;;;;;;10135533;28;20337;-60
2022/08/10 19:07:45;;;;;;;6.03;1.20;;;;;;;;;;10135268;28;20081;-58
2022/08/10 19:12:47;;;;;;;8.75;1.50;;;;;;;;;;10134189;28;20077;-58
2022/08/10 19:17:50;;;;;;;3.80;1.30;;;;;;;;;;10133248;28;20070;-58
2022/08/10 19:23:14;;;;;;;3.83;1.45;;;;;;;;;;10133302;28;20545;-59
2022/08/10 19:28:15;;;;;;;3.42;1.30;;;;;;;;;;10134972;28;20096;-60
2022/08/10 19:33:19;;;;;;;2.63;1.45;;;;;;;;;;10135882;28;20096;-59
2022/08/10 19:38:24;;;;;;;1.65;1.10;;;;;;;;;;10136677;28;20073;-60
2022/08/10 19:43:33;;;;;;;7.80;1.65;;;;;;;;;;10131093;28;20085;-59
2022/08/10 19:48:55;;;;;;;2.38;1.40;;;;;;;;;;10132591;28;20078;-60
2022/08/10 19:53:59;;;;;;;4.13;1.13;;;;;;;;;;10133728;28;20070;-59
2022/08/10 19:59:00;;;;;;;1.33;1.23;;;;;;;;;;10134529;28;20042;-60
2022/08/10 20:04:01;;;;;;;1.85;1.58;;;;;;;;;;10133872;28;20081;-59
2022/08/10 20:09:02;;;;;;;2.20;1.52;;;;;;;;;;10133511;28;20078;-59
2022/08/10 20:14:04;;;;;;;1.83;1.58;;;;;;;;;;10135334;28;20500;-58
2022/08/10 20:19:26;;;;;;;4.30;1.40;;;;;;;;;;10149341;28;20089;-57
2022/08/10 20:24:48;;;;;;;2.65;1.65;;;;;;;;;;10149951;28;20089;-57
2022/08/10 20:29:49;;;;;;;1.40;1.20;;;;;;;;;;10155269;28;20077;-57
2022/08/10 20:34:58;;;;;;;4.32;1.08;;;;;;;;;;10156903;28;20706;-59
2022/08/10 20:40:04;;;;;;;1.98;1.23;;;;;;;;;;10148513;28;20061;-59
2022/08/10 20:45:05;;;;;;;1.70;1.27;;;;;;;;;;10140498;28;20076;-60
2022/08/10 20:50:09;;;;;;;1.65;1.23;;;;;;;;;;10144297;28;20084;-61
2022/08/10 20:55:11;;;;;;;3.33;1.27;;;;;;;;;;10152938;28;20077;-60
2022/08/10 21:00:12;;;;;;;5.25;1.55;;;;;;;;;;10152227;28;20070;-59
2022/08/10 21:05:16;;;;;;;2.05;1.55;;;;;;;;;;10155282;28;20078;-60
2022/08/10 21:10:23;;;;;;;1.63;1.17;;;;;;;;;;10150108;28;20065;-59
2022/08/10 21:15:28;;;;;;;1.33;1.15;;;;;;;;;;10156647;28;20085;-59
2022/08/10 21:20:42;;;;;;;2.80;1.10;;;;;;;;;;10158279;28;20061;-59
2022/08/10 21:25:51;;;;;;;1.20;1.10;;;;;;;;;;10156263;28;20436;-57
2022/08/10 22:51:50;;;;;;;3.47;1.35;;;;;;;;;;10143172;28;20085;-59
2022/08/10 23:02:08;;;;;;;5.07;1.60;;;;;;;;;;10152981;28;20070;-59
2022/08/10 23:07:11;;;;;;;2.25;1.42;;;;;;;;;;10146590;28;20081;-59
2022/08/10 23:12:11;;;;;;;2.45;1.23;;;;;;;;;;10141471;28;20074;-59
2022/08/10 23:23:02;;;;;;;1.80;1.48;;;;;;;;;;10150954;28;20094;-59
2022/08/10 23:28:07;;;;;;;4.00;1.50;;;;;;;;;;10138609;28;20070;-58
2022/08/10 23:33:11;;;;;;;3.10;1.50;;;;;;;;;;10135016;28;20613;-59
2022/08/10 23:38:11;;;;;;;1.73;1.60;;;;;;;;;;10151072;28;20084;-60
2022/08/10 23:43:14;;;;;;;1.75;1.40;;;;;;;;;;10134966;28;20058;-60
2022/08/10 23:48:17;;;;;;;1.45;1.20;;;;;;;;;;10136039;28;20066;-59
2022/08/10 23:53:18;;;;;;;1.93;1.37;;;;;;;;;;10135549;28;20066;-59
2022/08/10 23:58:18;;;;;;;3.63;1.60;;;;;;;;;;10134819;28;20073;-59
